createdAt,value
2023-04-12T00:00:24.980Z,2773.00
2023-04-12T00:01:24.979Z,2724.00
2023-04-12T00:02:25.092Z,2723.00
2023-04-12T00:03:25.173Z,2782.00
2023-04-12T00:04:25.176Z,2776.00
2023-04-12T00:05:25.175Z,2802.00
2023-04-12T00:06:25.004Z,2757.00
2023-04-12T00:07:25.017Z,2751.00
2023-04-12T00:08:25.023Z,2714.00
2023-04-12T00:09:25.027Z,2710.00
2023-04-12T00:10:25.062Z,2736.00
2023-04-12T00:11:25.053Z,2735.00
2023-04-12T00:12:25.077Z,2747.00
2023-04-12T00:13:25.076Z,2765.00
2023-04-12T00:14:25.065Z,2751.00
2023-04-12T00:15:25.079Z,2713.00
2023-04-12T00:16:25.176Z,2668.00
2023-04-12T00:17:25.082Z,2690.00
2023-04-12T00:18:25.400Z,2710.00
2023-04-12T00:19:25.100Z,2694.00
2023-04-12T00:20:25.098Z,2681.00
2023-04-12T00:21:25.134Z,2672.00
2023-04-12T00:22:25.124Z,2679.00
2023-04-12T00:23:25.128Z,2695.00
2023-04-12T00:24:25.142Z,2652.00
2023-04-12T00:25:25.175Z,2690.00
2023-04-12T00:26:25.197Z,2719.00
2023-04-12T00:27:25.207Z,2689.00
2023-04-12T00:28:25.229Z,2694.00
2023-04-12T00:29:25.287Z,2668.00
2023-04-12T00:30:25.253Z,2645.00
2023-04-12T00:31:25.335Z,2689.00
2023-04-12T00:32:25.279Z,2658.00
2023-04-12T00:33:25.294Z,2667.00
2023-04-12T00:34:25.302Z,2666.00
2023-04-12T00:35:25.311Z,2612.00
2023-04-12T00:36:25.344Z,2654.00
2023-04-12T00:37:25.352Z,2669.00
2023-04-12T00:38:25.349Z,2661.00
2023-04-12T00:39:25.374Z,2674.00
2023-04-12T00:40:25.399Z,2636.00
2023-04-12T00:41:25.393Z,2659.00
2023-04-12T00:42:25.390Z,2687.00
2023-04-12T00:43:25.392Z,2690.00
2023-04-12T00:44:25.424Z,2687.00
2023-04-12T00:45:25.408Z,2688.00
2023-04-12T00:46:25.512Z,2669.00
2023-04-12T00:47:25.504Z,2705.00
2023-04-12T00:48:25.453Z,2707.00
2023-04-12T00:49:25.478Z,2696.00
2023-04-12T00:50:25.447Z,2723.00
2023-04-12T00:51:25.480Z,2740.00
2023-04-12T00:52:25.493Z,2752.00
2023-04-12T00:53:25.481Z,2760.00
2023-04-12T00:54:25.481Z,2765.00
2023-04-12T00:55:25.461Z,2729.00
2023-04-12T00:56:25.481Z,2690.00
2023-04-12T00:57:25.508Z,2692.00
2023-04-12T00:58:25.497Z,2693.00
2023-04-12T00:59:25.500Z,2716.00
2023-04-12T01:00:25.556Z,2701.00
2023-04-12T01:01:25.510Z,2726.00
2023-04-12T01:02:25.609Z,2689.00
2023-04-12T01:03:25.708Z,2710.00
2023-04-12T01:04:25.544Z,2727.00
2023-04-12T01:05:25.583Z,2723.00
2023-04-12T01:06:25.549Z,2701.00
2023-04-12T01:07:25.553Z,2704.00
2023-04-12T01:08:25.560Z,2722.00
2023-04-12T01:09:25.558Z,2677.00
2023-04-12T01:10:25.572Z,2667.00
2023-04-12T01:11:25.612Z,2670.00
2023-04-12T01:12:25.608Z,2681.00
2023-04-12T01:13:25.619Z,2682.00
2023-04-12T01:14:25.609Z,2679.00
2023-04-12T01:15:25.616Z,2695.00
2023-04-12T01:16:25.674Z,2682.00
2023-04-12T01:17:25.703Z,2691.00
2023-04-12T01:18:25.631Z,2664.00
2023-04-12T01:19:25.641Z,2650.00
2023-04-12T01:20:25.656Z,2634.00
2023-04-12T01:21:25.672Z,2654.00
2023-04-12T01:22:25.653Z,2663.00
2023-04-12T01:23:25.689Z,2653.00
2023-04-12T01:24:25.692Z,2658.00
2023-04-12T01:25:25.673Z,2653.00
2023-04-12T01:26:25.760Z,2663.00
2023-04-12T01:27:25.698Z,2667.00
2023-04-12T01:28:25.699Z,2680.00
2023-04-12T01:29:25.721Z,2644.00
2023-04-12T01:30:25.727Z,2598.00
2023-04-12T01:31:25.706Z,2614.00
2023-04-12T01:32:25.714Z,2596.00
2023-04-12T01:33:25.692Z,2605.00
2023-04-12T01:34:25.700Z,2581.00
2023-04-12T01:35:25.754Z,2607.00
2023-04-12T01:36:25.702Z,2638.00
2023-04-12T01:37:25.726Z,2631.00
2023-04-12T01:38:25.711Z,2627.00
2023-04-12T01:39:25.713Z,2581.00
2023-04-12T01:40:25.731Z,2579.00
2023-04-12T01:41:25.733Z,2582.00
2023-04-12T01:42:25.738Z,2606.00
2023-04-12T01:43:25.721Z,2606.00
2023-04-12T01:44:25.718Z,2629.00
2023-04-12T01:45:25.742Z,2582.00
2023-04-12T01:46:25.732Z,2582.00
2023-04-12T01:47:25.779Z,2553.00
2023-04-12T01:48:25.708Z,2564.00
2023-04-12T01:49:25.741Z,2569.00
2023-04-12T01:50:25.737Z,2554.00
2023-04-12T01:51:25.715Z,2568.00
2023-04-12T01:52:25.711Z,2546.00
2023-04-12T01:53:25.708Z,2577.00
2023-04-12T01:54:25.721Z,2559.00
2023-04-12T01:55:25.730Z,2512.00
2023-04-12T01:56:25.727Z,2529.00
2023-04-12T01:57:25.744Z,2501.00
2023-04-12T01:58:25.718Z,2541.00
2023-04-12T01:59:25.727Z,2547.00
2023-04-12T02:00:25.732Z,2538.00
2023-04-12T02:01:25.838Z,2548.00
2023-04-12T02:02:25.887Z,2547.00
2023-04-12T02:03:25.843Z,2559.00
2023-04-12T02:04:25.753Z,2566.00
2023-04-12T02:05:25.748Z,2560.00
2023-04-12T02:06:25.774Z,2539.00
2023-04-12T02:07:25.773Z,2539.00
2023-04-12T02:08:25.752Z,2552.00
2023-04-12T02:09:25.739Z,2506.00
2023-04-12T02:10:25.776Z,2502.00
2023-04-12T02:11:25.776Z,2507.00
2023-04-12T02:12:25.752Z,2545.00
2023-04-12T02:13:25.780Z,2535.00
2023-04-12T02:14:25.757Z,2545.00
2023-04-12T02:15:25.780Z,2559.00
2023-04-12T02:16:25.836Z,2564.00
2023-04-12T02:17:25.759Z,2536.00
2023-04-12T02:18:25.774Z,2532.00
2023-04-12T02:19:25.776Z,2551.00
2023-04-12T02:20:25.769Z,2550.00
2023-04-12T02:21:25.779Z,2543.00
2023-04-12T02:22:25.792Z,2523.00
2023-04-12T02:23:25.803Z,2514.00
2023-04-12T02:24:25.824Z,2528.00
2023-04-12T02:25:25.819Z,2532.00
2023-04-12T02:26:25.829Z,2526.00
2023-04-12T02:27:25.846Z,2539.00
2023-04-12T02:28:25.832Z,2522.00
2023-04-12T02:29:25.829Z,2516.00
2023-04-12T02:30:25.923Z,2506.00
2023-04-12T02:31:25.864Z,2493.00
2023-04-12T02:32:25.904Z,2571.00
2023-04-12T02:33:25.854Z,2543.00
2023-04-12T02:34:25.849Z,2535.00
2023-04-12T02:35:25.877Z,2509.00
2023-04-12T02:36:25.869Z,2551.00
2023-04-12T02:37:25.850Z,2500.00
2023-04-12T02:38:25.839Z,2489.00
2023-04-12T02:39:25.851Z,2534.00
2023-04-12T02:40:25.845Z,2565.00
2023-04-12T02:41:25.875Z,2511.00
2023-04-12T02:42:25.836Z,2514.00
2023-04-12T02:43:25.844Z,2516.00
2023-04-12T02:44:25.854Z,2523.00
2023-04-12T02:45:25.851Z,2525.00
2023-04-12T02:46:25.923Z,2517.00
2023-04-12T02:47:25.869Z,2527.00
2023-04-12T02:48:25.838Z,2539.00
2023-04-12T02:49:25.837Z,2505.00
2023-04-12T02:50:25.834Z,2505.00
2023-04-12T02:51:25.840Z,2518.00
2023-04-12T02:52:25.837Z,2502.00
2023-04-12T02:53:25.814Z,2505.00
2023-04-12T02:54:25.843Z,2487.00
2023-04-12T02:55:25.853Z,2501.00
2023-04-12T02:56:25.842Z,2503.00
2023-04-12T02:57:25.894Z,2507.00
2023-04-12T02:58:25.872Z,2488.00
2023-04-12T02:59:25.853Z,2483.00
2023-04-12T03:00:25.874Z,2517.00
2023-04-12T03:01:25.900Z,2500.00
2023-04-12T03:02:25.962Z,2481.00
2023-04-12T03:03:26.034Z,2485.00
2023-04-12T03:04:26.000Z,2488.00
2023-04-12T03:05:25.891Z,2488.00
2023-04-12T03:06:25.857Z,2474.00
2023-04-12T03:07:25.859Z,2481.00
2023-04-12T03:08:25.868Z,2472.00
2023-04-12T03:09:25.854Z,2500.00
2023-04-12T03:10:25.851Z,2468.00
2023-04-12T03:11:25.861Z,2466.00
2023-04-12T03:12:25.888Z,2476.00
2023-04-12T03:13:25.846Z,2464.00
2023-04-12T03:14:25.868Z,2473.00
2023-04-12T03:15:25.955Z,2456.00
2023-04-12T03:16:25.850Z,2467.00
2023-04-12T03:17:25.894Z,2461.00
2023-04-12T03:18:25.872Z,2444.00
2023-04-12T03:19:25.844Z,2466.00
2023-04-12T03:20:25.843Z,2453.00
2023-04-12T03:21:25.860Z,2442.00
2023-04-12T03:22:25.852Z,2443.00
2023-04-12T03:23:25.868Z,2455.00
2023-04-12T03:24:25.876Z,2435.00
2023-04-12T03:25:25.863Z,2439.00
2023-04-12T03:26:25.870Z,2433.00
2023-04-12T03:27:25.866Z,2414.00
2023-04-12T03:28:25.872Z,2435.00
2023-04-12T03:29:25.883Z,2441.00
2023-04-12T03:30:25.870Z,2432.00
2023-04-12T03:31:25.891Z,2406.00
2023-04-12T03:32:25.925Z,2444.00
2023-04-12T03:33:25.903Z,2466.00
2023-04-12T03:34:25.893Z,2439.00
2023-04-12T03:35:25.957Z,2444.00
2023-04-12T03:36:25.892Z,2434.00
2023-04-12T03:37:25.922Z,2422.00
2023-04-12T03:38:25.900Z,2447.00
2023-04-12T03:39:25.876Z,2422.00
2023-04-12T03:40:25.901Z,2389.00
2023-04-12T03:41:25.895Z,2378.00
2023-04-12T03:42:33.259Z,2387.00
2023-04-12T03:43:26.866Z,2388.00
2023-04-12T03:44:25.868Z,2395.00
2023-04-12T03:45:25.867Z,2416.00
2023-04-12T03:46:25.914Z,2418.00
2023-04-12T03:47:25.938Z,2470.00
2023-04-12T03:48:25.829Z,2457.00
2023-04-12T03:49:25.844Z,2423.00
2023-04-12T03:50:25.838Z,2433.00
2023-04-12T03:51:25.807Z,2415.00
2023-04-12T03:52:25.819Z,2430.00
2023-04-12T03:53:25.787Z,2442.00
2023-04-12T03:54:25.782Z,2455.00
2023-04-12T03:55:25.787Z,2482.00
2023-04-12T03:56:25.809Z,2479.00
2023-04-12T03:57:25.778Z,2476.00
2023-04-12T03:58:25.780Z,2446.00
2023-04-12T03:59:25.771Z,2460.00
2023-04-12T04:00:25.771Z,2432.00
2023-04-12T04:01:25.755Z,2455.00
2023-04-12T04:02:25.964Z,2459.00
2023-04-12T04:03:25.806Z,2458.00
2023-04-12T04:04:25.834Z,2438.00
2023-04-12T04:05:25.746Z,2432.00
2023-04-12T04:06:25.731Z,2447.00
2023-04-12T04:07:25.713Z,2423.00
2023-04-12T04:08:25.702Z,2404.00
2023-04-12T04:09:25.671Z,2401.00
2023-04-12T04:10:25.698Z,2415.00
2023-04-12T04:11:25.737Z,2406.00
2023-04-12T04:12:25.676Z,2383.00
2023-04-12T04:13:25.665Z,2401.00
2023-04-12T04:14:25.686Z,2424.00
2023-04-12T04:15:25.668Z,2412.00
2023-04-12T04:16:25.727Z,2357.00
2023-04-12T04:17:25.733Z,2392.00
2023-04-12T04:18:25.712Z,2411.00
2023-04-12T04:19:25.725Z,2393.00
2023-04-12T04:20:27.341Z,2385.00
2023-04-12T04:21:25.749Z,2399.00
2023-04-12T04:22:25.754Z,2377.00
2023-04-12T04:23:25.735Z,2419.00
2023-04-12T04:24:25.736Z,2418.00
2023-04-12T04:25:25.762Z,2411.00
2023-04-12T04:26:25.725Z,2408.00
2023-04-12T04:27:25.733Z,2417.00
2023-04-12T04:28:25.735Z,2398.00
2023-04-12T04:29:25.770Z,2391.00
2023-04-12T04:30:25.738Z,2397.00
2023-04-12T04:31:25.734Z,2410.00
2023-04-12T04:32:25.780Z,2434.00
2023-04-12T04:33:25.740Z,2443.00
2023-04-12T04:34:25.722Z,2430.00
2023-04-12T04:35:25.805Z,2391.00
2023-04-12T04:36:25.737Z,2415.00
2023-04-12T04:37:25.744Z,2440.00
2023-04-12T04:38:25.818Z,2436.00
2023-04-12T04:39:25.721Z,2447.00
2023-04-12T04:40:25.738Z,2465.00
2023-04-12T04:41:25.730Z,2457.00
2023-04-12T04:42:25.731Z,2446.00
2023-04-12T04:43:25.703Z,2447.00
2023-04-12T04:44:25.706Z,2454.00
2023-04-12T04:45:25.776Z,2457.00
2023-04-12T04:46:25.777Z,2475.00
2023-04-12T04:47:25.790Z,2492.00
2023-04-12T04:48:25.774Z,2453.00
2023-04-12T04:49:25.757Z,2467.00
2023-04-12T04:50:25.782Z,2494.00
2023-04-12T04:51:25.802Z,2484.00
2023-04-12T04:52:25.789Z,2507.00
2023-04-12T04:53:25.795Z,2480.00
2023-04-12T04:54:25.814Z,2486.00
2023-04-12T04:55:25.856Z,2472.00
2023-04-12T04:56:25.849Z,2482.00
2023-04-12T04:57:25.810Z,2478.00
2023-04-12T04:58:25.826Z,2470.00
2023-04-12T04:59:25.823Z,2490.00
2023-04-12T05:00:25.828Z,2476.00
2023-04-12T05:01:25.949Z,2478.00
2023-04-12T05:02:25.933Z,2460.00
2023-04-12T05:03:27.567Z,2487.00
2023-04-12T05:04:25.870Z,2484.00
2023-04-12T05:05:25.844Z,2494.00
2023-04-12T05:06:25.862Z,2482.00
2023-04-12T05:07:25.818Z,2485.00
2023-04-12T05:08:25.818Z,2457.00
2023-04-12T05:09:25.798Z,2461.00
2023-04-12T05:10:25.827Z,2469.00
2023-04-12T05:11:25.828Z,2460.00
2023-04-12T05:12:25.782Z,2467.00
2023-04-12T05:13:25.807Z,2496.00
2023-04-12T05:14:30.993Z,2538.00
2023-04-12T05:15:26.784Z,2539.00
2023-04-12T05:16:25.779Z,2545.00
2023-04-12T05:17:25.766Z,2554.00
2023-04-12T05:18:25.791Z,2586.00
2023-04-12T05:19:25.744Z,2612.00
2023-04-12T05:20:25.760Z,2581.00
2023-04-12T05:21:25.743Z,2590.00
2023-04-12T05:22:25.734Z,2588.00
2023-04-12T05:23:25.786Z,2599.00
2023-04-12T05:24:25.717Z,2606.00
2023-04-12T05:25:25.730Z,2616.00
2023-04-12T05:26:25.712Z,2605.00
2023-04-12T05:27:25.682Z,2628.00
2023-04-12T05:28:25.701Z,2595.00
2023-04-12T05:29:25.669Z,2628.00
2023-04-12T05:30:25.696Z,2598.00
2023-04-12T05:31:25.712Z,2571.00
2023-04-12T05:32:25.709Z,2582.00
2023-04-12T05:33:25.666Z,2598.00
2023-04-12T05:34:25.663Z,2526.00
2023-04-12T05:35:25.670Z,2505.00
2023-04-12T05:36:25.802Z,2516.00
2023-04-12T05:37:25.623Z,2513.00
2023-04-12T05:38:25.823Z,2526.00
2023-04-12T05:39:25.609Z,2547.00
2023-04-12T05:40:25.594Z,2583.00
2023-04-12T05:41:25.607Z,2606.00
2023-04-12T05:42:25.623Z,2611.00
2023-04-12T05:43:25.621Z,2641.00
2023-04-12T05:44:25.640Z,2718.00
2023-04-12T05:45:25.671Z,2796.00
2023-04-12T05:46:25.718Z,2840.00
2023-04-12T05:47:25.732Z,2861.00
2023-04-12T05:48:25.768Z,2887.00
2023-04-12T05:49:25.823Z,2902.00
2023-04-12T05:50:25.893Z,2921.00
2023-04-12T05:51:40.029Z,2946.00
2023-04-12T05:52:26.944Z,2947.00
2023-04-12T05:53:25.921Z,2954.00
2023-04-12T05:54:25.935Z,2970.00
2023-04-12T05:55:25.924Z,2994.00
2023-04-12T05:56:25.936Z,3023.00
2023-04-12T05:57:25.915Z,3045.00
2023-04-12T05:58:25.890Z,3065.00
2023-04-12T05:59:25.898Z,3090.00
2023-04-12T06:00:25.880Z,3010.00
2023-04-12T06:01:25.869Z,2853.00
2023-04-12T06:02:26.569Z,2807.00
2023-04-12T06:03:25.974Z,2781.00
2023-04-12T06:04:34.804Z,2709.00
2023-04-12T06:05:27.028Z,2709.00
2023-04-12T06:06:25.957Z,2666.00
2023-04-12T06:07:26.303Z,2671.00
2023-04-12T06:08:25.926Z,2663.00
2023-04-12T06:09:25.910Z,2698.00
2023-04-12T06:10:25.913Z,2691.00
2023-04-12T06:11:25.900Z,2702.00
2023-04-12T06:12:25.896Z,2775.00
2023-04-12T06:13:25.902Z,2735.00
2023-04-12T06:14:25.908Z,2737.00
2023-04-12T06:15:25.882Z,2802.00
2023-04-12T06:16:25.893Z,2800.00
2023-04-12T06:17:25.919Z,2758.00
2023-04-12T06:18:25.914Z,2762.00
2023-04-12T06:19:25.933Z,2723.00
2023-04-12T06:20:26.012Z,2727.00
2023-04-12T06:21:25.982Z,2707.00
2023-04-12T06:22:26.015Z,2777.00
2023-04-12T06:23:26.059Z,2761.00
2023-04-12T06:24:26.074Z,2723.00
2023-04-12T06:25:26.103Z,2726.00
2023-04-12T06:26:26.988Z,2706.00
2023-04-12T06:27:26.189Z,2731.00
2023-04-12T06:28:26.234Z,2713.00
2023-04-12T06:29:26.307Z,2697.00
2023-04-12T06:30:26.331Z,2731.00
2023-04-12T06:31:26.358Z,2724.00
2023-04-12T06:32:26.440Z,2583.00
2023-04-12T06:33:26.472Z,2578.00
2023-04-12T06:34:26.479Z,2649.00
2023-04-12T06:35:26.483Z,2696.00
2023-04-12T06:36:26.539Z,2735.00
2023-04-12T06:37:26.613Z,2768.00
2023-04-12T06:38:26.654Z,2773.00
2023-04-12T06:39:26.762Z,2801.00
2023-04-12T06:40:26.846Z,2853.00
2023-04-12T06:41:26.781Z,2894.00
2023-04-12T06:42:26.795Z,2923.00
2023-04-12T06:43:26.814Z,2937.00
2023-04-12T06:44:26.826Z,2973.00
2023-04-12T06:45:26.840Z,2996.00
2023-04-12T06:46:26.886Z,3031.00
2023-04-12T06:47:27.334Z,3046.00
2023-04-12T06:48:26.860Z,3072.00
2023-04-12T06:49:26.873Z,3089.00
2023-04-12T06:50:26.905Z,3076.00
2023-04-12T06:51:26.956Z,3086.00
2023-04-12T06:52:27.046Z,3103.00
2023-04-12T06:53:27.072Z,3109.00
2023-04-12T06:54:27.114Z,3102.00
2023-04-12T06:55:27.194Z,3114.00
2023-04-12T06:56:27.215Z,3142.00
2023-04-12T06:57:27.356Z,3176.00
2023-04-12T06:58:27.334Z,3201.00
2023-04-12T06:59:27.410Z,3224.00
2023-04-12T07:00:27.450Z,3212.00
2023-04-12T07:01:27.579Z,3220.00
2023-04-12T07:02:27.594Z,3180.00
2023-04-12T07:03:27.635Z,3196.00
2023-04-12T07:04:27.625Z,3210.00
2023-04-12T07:05:27.682Z,3220.00
2023-04-12T07:06:27.689Z,3218.00
2023-04-12T07:07:27.838Z,3221.00
2023-04-12T07:08:29.685Z,3216.00
2023-04-12T07:09:27.808Z,3202.00
2023-04-12T07:10:27.826Z,3199.00
2023-04-12T07:11:27.895Z,3195.00
2023-04-12T07:12:27.914Z,3163.00
2023-04-12T07:13:28.040Z,3102.00
2023-04-12T07:14:27.975Z,3016.00
2023-04-12T07:15:28.025Z,2992.00
2023-04-12T07:16:28.069Z,2974.00
2023-04-12T07:17:28.378Z,3004.00
2023-04-12T07:18:28.132Z,3019.00
2023-04-12T07:19:28.348Z,3002.00
2023-04-12T07:20:28.177Z,3012.00
2023-04-12T07:21:28.254Z,3007.00
2023-04-12T07:22:28.253Z,3012.00
2023-04-12T07:23:28.290Z,3010.00
2023-04-12T07:24:28.307Z,2999.00
2023-04-12T07:25:28.317Z,2962.00
2023-04-12T07:26:28.353Z,2806.00
2023-04-12T07:27:28.396Z,2711.00
2023-04-12T07:28:28.420Z,2764.00
2023-04-12T07:29:28.455Z,2720.00
2023-04-12T07:30:28.498Z,2802.00
2023-04-12T07:31:28.569Z,2784.00
2023-04-12T07:32:28.663Z,2764.00
2023-04-12T07:33:28.588Z,2563.00
2023-04-12T07:34:28.726Z,2334.00
2023-04-12T07:35:28.623Z,2027.00
2023-04-12T07:36:28.649Z,1916.00
2023-04-12T07:37:28.700Z,1807.00
2023-04-12T07:38:28.765Z,1676.00
2023-04-12T07:39:28.961Z,1574.00
2023-04-12T07:40:28.796Z,1531.00
2023-04-12T07:41:28.811Z,1426.00
2023-04-12T07:42:28.837Z,1482.00
2023-04-12T07:43:28.868Z,1405.00
2023-04-12T07:44:28.879Z,1355.00
2023-04-12T07:45:29.002Z,1333.00
2023-04-12T07:46:28.988Z,1366.00
2023-04-12T07:47:28.992Z,1347.00
2023-04-12T07:48:29.018Z,1392.00
2023-04-12T07:49:29.068Z,1262.00
2023-04-12T07:50:29.169Z,1269.00
2023-04-12T07:51:29.189Z,1358.00
2023-04-12T07:52:29.236Z,1409.00
2023-04-12T07:53:29.308Z,1493.00
2023-04-12T07:54:29.343Z,1578.00
2023-04-12T07:55:29.393Z,1562.00
2023-04-12T07:56:29.468Z,1634.00
2023-04-12T07:57:29.453Z,1675.00
2023-04-12T07:58:29.488Z,1805.00
2023-04-12T07:59:29.526Z,1812.00
2023-04-12T08:00:29.574Z,1787.00
2023-04-12T08:01:29.571Z,1927.00
2023-04-12T08:02:29.687Z,1951.00
2023-04-12T08:03:29.706Z,1857.00
2023-04-12T08:04:29.742Z,1896.00
2023-04-12T08:05:29.776Z,1903.00
2023-04-12T08:06:31.811Z,1979.00
2023-04-12T08:07:29.844Z,1979.00
2023-04-12T08:08:29.636Z,1936.00
2023-04-12T08:09:29.672Z,1887.00
2023-04-12T08:10:29.652Z,1971.00
2023-04-12T08:11:29.623Z,2023.00
2023-04-12T08:12:29.673Z,2101.00
2023-04-12T08:13:29.594Z,2108.00
2023-04-12T08:14:29.663Z,2190.00
2023-04-12T08:15:29.669Z,2135.00
2023-04-12T08:16:29.585Z,2018.00
2023-04-12T08:17:29.612Z,2066.00
2023-04-12T08:18:29.564Z,2047.00
2023-04-12T08:19:29.867Z,1943.00
2023-04-12T08:20:29.552Z,1863.00
2023-04-12T08:21:29.551Z,1841.00
2023-04-12T08:22:29.868Z,1840.00
2023-04-12T08:23:29.521Z,1927.00
2023-04-12T08:24:29.530Z,2071.00
2023-04-12T08:25:29.534Z,2353.00
2023-04-12T08:26:29.501Z,3583.00
2023-04-12T08:27:29.523Z,4055.00
2023-04-12T08:28:29.494Z,4410.00
2023-04-12T08:29:29.489Z,4583.00
2023-04-12T08:30:29.481Z,4671.00
2023-04-12T08:31:29.487Z,4669.00
2023-04-12T08:32:29.468Z,4637.00
2023-04-12T08:33:29.482Z,4581.00
2023-04-12T08:34:29.439Z,4592.00
2023-04-12T08:35:29.524Z,4523.00
2023-04-12T08:36:29.436Z,4503.00
2023-04-12T08:37:29.448Z,4479.00
2023-04-12T08:38:44.209Z,4448.00
2023-04-12T08:39:30.428Z,4451.00
2023-04-12T08:40:29.408Z,4452.00
2023-04-12T08:41:29.393Z,4450.00
2023-04-12T08:42:29.386Z,4475.00
2023-04-12T08:43:29.378Z,4460.00
2023-04-12T08:44:29.359Z,4352.00
2023-04-12T08:45:29.355Z,4041.00
2023-04-12T08:46:29.400Z,3988.00
2023-04-12T08:47:29.363Z,3740.00
2023-04-12T08:48:29.349Z,3637.00
2023-04-12T08:49:29.408Z,3576.00
2023-04-12T08:50:29.349Z,3450.00
2023-04-12T08:51:29.338Z,3414.00
2023-04-12T08:52:29.313Z,3388.00
2023-04-12T08:53:29.296Z,3373.00
2023-04-12T08:54:29.336Z,3399.00
2023-04-12T08:55:29.377Z,3400.00
2023-04-12T08:56:29.425Z,3407.00
2023-04-12T08:57:31.236Z,3482.00
2023-04-12T08:58:29.529Z,3556.00
2023-04-12T08:59:29.525Z,3664.00
2023-04-12T09:00:29.557Z,3701.00
2023-04-12T09:01:29.657Z,3676.00
2023-04-12T09:02:29.805Z,3656.00
2023-04-12T09:03:31.959Z,3622.00
2023-04-12T09:04:29.773Z,3604.00
2023-04-12T09:05:29.749Z,3557.00
2023-04-12T09:06:29.673Z,3542.00
2023-04-12T09:07:29.654Z,3462.00
2023-04-12T09:08:29.894Z,3403.00
2023-04-12T09:09:29.658Z,3358.00
2023-04-12T09:10:29.876Z,3316.00
2023-04-12T09:11:29.639Z,3324.00
2023-04-12T09:12:29.624Z,3284.00
2023-04-12T09:13:29.611Z,3182.00
2023-04-12T09:14:29.599Z,3298.00
2023-04-12T09:15:29.608Z,3230.00
2023-04-12T09:16:29.635Z,3006.00
2023-04-12T09:17:29.591Z,2847.00
2023-04-12T09:18:29.586Z,2697.00
2023-04-12T09:19:29.580Z,2451.00
2023-04-12T09:20:29.606Z,2350.00
2023-04-12T09:21:29.546Z,2208.00
2023-04-12T09:22:29.533Z,2164.00
2023-04-12T09:23:29.577Z,2066.00
2023-04-12T09:24:29.523Z,1983.00
2023-04-12T09:25:29.884Z,1990.00
2023-04-12T09:26:29.503Z,2011.00
2023-04-12T09:27:29.525Z,2021.00
2023-04-12T09:28:29.493Z,2044.00
2023-04-12T09:29:29.489Z,2043.00
2023-04-12T09:30:29.505Z,2109.00
2023-04-12T09:31:29.524Z,2139.00
2023-04-12T09:32:29.526Z,2201.00
2023-04-12T09:33:29.487Z,2457.00
2023-04-12T09:34:29.464Z,2539.00
2023-04-12T09:35:29.460Z,2653.00
2023-04-12T09:36:29.468Z,2731.00
2023-04-12T09:37:29.452Z,2791.00
2023-04-12T09:38:29.438Z,2833.00
2023-04-12T09:39:29.441Z,2830.00
2023-04-12T09:40:29.429Z,2833.00
2023-04-12T09:41:29.423Z,2849.00
2023-04-12T09:42:33.915Z,2858.00
2023-04-12T09:43:30.434Z,2859.00
2023-04-12T09:44:29.383Z,2861.00
2023-04-12T09:45:29.389Z,2862.00
2023-04-12T09:46:29.492Z,2870.00
2023-04-12T09:47:29.362Z,2867.00
2023-04-12T09:48:29.343Z,2875.00
2023-04-12T09:49:29.383Z,2855.00
2023-04-12T09:50:29.508Z,2862.00
2023-04-12T09:51:29.390Z,2859.00
2023-04-12T09:52:30.209Z,2860.00
2023-04-12T09:53:29.625Z,2842.00
2023-04-12T09:54:29.631Z,2841.00
2023-04-12T09:55:29.520Z,2795.00
2023-04-12T09:56:29.502Z,2792.00
2023-04-12T09:57:29.496Z,2713.00
2023-04-12T09:58:31.338Z,2634.00
2023-04-12T09:59:29.474Z,2682.00
2023-04-12T10:00:29.508Z,2677.00
2023-04-12T10:01:29.522Z,2679.00
2023-04-12T10:02:29.659Z,2643.00
2023-04-12T10:03:29.626Z,2639.00
2023-04-12T10:04:29.797Z,2641.00
2023-04-12T10:05:29.706Z,2620.00
2023-04-12T10:06:29.501Z,2620.00
2023-04-12T10:07:29.493Z,2594.00
2023-04-12T10:08:29.481Z,2576.00
2023-04-12T10:09:29.527Z,2563.00
2023-04-12T10:10:29.938Z,2564.00
2023-04-12T10:11:29.488Z,2539.00
2023-04-12T10:12:29.502Z,2537.00
2023-04-12T10:13:29.911Z,2520.00
2023-04-12T10:14:29.491Z,2465.00
2023-04-12T10:15:29.516Z,2490.00
2023-04-12T10:16:29.521Z,2457.00
2023-04-12T10:17:29.554Z,2442.00
2023-04-12T10:18:29.464Z,2416.00
2023-04-12T10:19:29.500Z,2418.00
2023-04-12T10:20:29.926Z,2421.00
2023-04-12T10:21:29.485Z,2342.00
2023-04-12T10:22:29.489Z,2012.00
2023-04-12T10:23:29.546Z,1873.00
2023-04-12T10:24:29.495Z,1610.00
2023-04-12T10:25:29.495Z,1099.00
2023-04-12T10:26:29.574Z,1213.00
2023-04-12T10:27:29.578Z,1340.00
2023-04-12T10:28:29.653Z,1277.00
2023-04-12T10:29:29.686Z,1264.00
2023-04-12T10:30:29.714Z,1234.00
2023-04-12T10:31:29.895Z,1235.00
2023-04-12T10:32:29.868Z,1269.00
2023-04-12T10:33:29.926Z,1267.00
2023-04-12T10:34:29.930Z,1240.00
2023-04-12T10:35:30.017Z,1250.00
2023-04-12T10:36:30.129Z,1248.00
2023-04-12T10:37:30.065Z,1310.00
2023-04-12T10:38:30.127Z,1243.00
2023-04-12T10:39:30.181Z,1277.00
2023-04-12T10:40:30.236Z,1293.00
2023-04-12T10:41:30.436Z,1334.00
2023-04-12T10:42:30.320Z,1278.00
2023-04-12T10:43:30.479Z,1281.00
2023-04-12T10:44:30.366Z,1336.00
2023-04-12T10:45:30.428Z,1325.00
2023-04-12T10:46:31.045Z,1335.00
2023-04-12T10:47:30.655Z,1350.00
2023-04-12T10:48:30.549Z,1440.00
2023-04-12T10:49:30.602Z,1472.00
2023-04-12T10:50:30.726Z,1531.00
2023-04-12T10:51:30.723Z,1534.00
2023-04-12T10:52:30.726Z,1410.00
2023-04-12T10:53:30.782Z,1366.00
2023-04-12T10:54:30.822Z,1194.00
2023-04-12T10:55:30.888Z,1270.00
2023-04-12T10:56:32.462Z,1225.00
2023-04-12T10:57:31.040Z,1222.00
2023-04-12T10:58:31.035Z,589.00
2023-04-12T10:59:44.929Z,500.00
2023-04-12T11:00:32.259Z,507.00
2023-04-12T11:01:31.641Z,545.00
2023-04-12T11:02:31.212Z,622.00
2023-04-12T11:03:31.135Z,817.00
2023-04-12T11:04:31.183Z,1249.00
2023-04-12T11:05:31.164Z,1331.00
2023-04-12T11:06:31.031Z,1374.00
2023-04-12T11:07:31.003Z,1346.00
2023-04-12T11:08:31.050Z,1275.00
2023-04-12T11:09:31.003Z,1309.00
2023-04-12T11:10:31.010Z,1350.00
2023-04-12T11:11:31.424Z,1394.00
2023-04-12T11:12:30.972Z,1110.00
2023-04-12T11:13:30.971Z,1237.00
2023-04-12T11:14:30.984Z,1389.00
2023-04-12T11:15:30.994Z,1532.00
2023-04-12T11:16:31.571Z,1571.00
2023-04-12T11:17:31.075Z,1726.00
2023-04-12T11:18:31.491Z,1753.00
2023-04-12T11:19:31.038Z,1824.00
2023-04-12T11:20:31.036Z,1927.00
2023-04-12T11:21:31.464Z,1873.00
2023-04-12T11:22:31.045Z,1778.00
2023-04-12T11:23:31.069Z,1695.00
2023-04-12T11:24:31.025Z,1918.00
2023-04-12T11:25:31.007Z,1883.00
2023-04-12T11:26:31.003Z,1945.00
2023-04-12T11:27:31.022Z,1969.00
2023-04-12T11:28:33.119Z,2013.00
2023-04-12T11:29:31.046Z,2041.00
2023-04-12T11:30:31.034Z,2038.00
2023-04-12T11:31:31.074Z,2066.00
2023-04-12T11:32:31.080Z,2051.00
2023-04-12T11:33:31.031Z,2068.00
2023-04-12T11:34:30.999Z,2130.00
2023-04-12T11:35:31.007Z,2098.00
2023-04-12T11:36:31.016Z,2087.00
2023-04-12T11:37:30.985Z,2098.00
2023-04-12T11:38:30.968Z,2098.00
2023-04-12T11:39:32.118Z,2080.00
2023-04-12T11:40:30.963Z,2117.00
2023-04-12T11:41:30.970Z,2133.00
2023-04-12T11:42:31.042Z,2159.00
2023-04-12T11:43:31.169Z,2142.00
2023-04-12T11:44:40.727Z,2169.00
2023-04-12T11:45:32.224Z,2170.00
2023-04-12T11:46:31.175Z,2173.00
2023-04-12T11:47:31.174Z,2177.00
2023-04-12T11:48:31.122Z,2177.00
2023-04-12T11:49:31.088Z,2202.00
2023-04-12T11:50:31.273Z,2197.00
2023-04-12T11:51:32.601Z,2220.00
2023-04-12T11:52:31.049Z,2228.00
2023-04-12T11:53:31.048Z,2228.00
2023-04-12T11:54:31.031Z,2268.00
2023-04-12T11:55:31.040Z,2355.00
2023-04-12T11:56:31.014Z,2358.00
2023-04-12T11:57:31.181Z,2332.00
2023-04-12T11:58:31.105Z,2320.00
2023-04-12T11:59:31.124Z,2341.00
2023-04-12T12:00:31.158Z,2328.00
2023-04-12T12:01:31.290Z,2297.00
2023-04-12T12:02:35.854Z,2201.00
2023-04-12T12:03:32.420Z,1919.00
2023-04-12T12:04:31.484Z,1776.00
2023-04-12T12:05:31.327Z,1813.00